createdAt,value
2019-05-05T00:00:55.032Z,22.34
2019-05-05T00:03:24.981Z,22.34
2019-05-05T00:08:16.852Z,22.30
2019-05-05T00:10:46.075Z,22.30
2019-05-05T00:13:14.783Z,22.32
2019-05-05T00:15:39.373Z,22.24
2019-05-05T00:20:35.720Z,22.27
2019-05-05T00:23:02.350Z,22.26
2019-05-05T00:25:28.992Z,22.23
2019-05-05T00:27:55.622Z,22.24
2019-05-05T00:30:22.310Z,22.23
2019-05-05T00:32:48.945Z,22.21
2019-05-05T00:35:15.619Z,22.19
2019-05-05T00:37:42.252Z,22.25
2019-05-05T00:40:08.897Z,22.19
2019-05-05T00:42:35.543Z,22.22
2019-05-05T00:45:02.214Z,22.19
2019-05-05T00:47:28.852Z,22.19
2019-05-05T00:49:56.341Z,22.21
2019-05-05T00:52:22.141Z,22.19
2019-05-05T00:54:48.798Z,22.18
2019-05-05T00:57:15.468Z,22.20
2019-05-05T00:59:42.100Z,22.23
2019-05-05T01:02:08.786Z,22.21
2019-05-05T01:04:35.393Z,22.16
2019-05-05T01:07:02.078Z,22.18
2019-05-05T01:09:28.763Z,22.17
2019-05-05T01:11:55.395Z,22.16
2019-05-05T01:14:22.056Z,22.16
2019-05-05T01:19:15.381Z,22.18
2019-05-05T01:21:42.026Z,22.11
2019-05-05T01:24:08.668Z,22.17
2019-05-05T01:26:35.501Z,22.13
2019-05-05T01:29:02.006Z,22.18
2019-05-05T01:31:28.640Z,22.14
2019-05-05T01:33:55.285Z,22.19
2019-05-05T01:36:23.704Z,22.04
2019-05-05T01:38:48.571Z,22.09
2019-05-05T01:41:15.263Z,22.10
2019-05-05T01:43:41.896Z,22.10
2019-05-05T01:46:08.534Z,22.13
2019-05-05T01:48:35.222Z,22.02
2019-05-05T01:53:28.502Z,22.05
2019-05-05T01:55:55.187Z,22.05
2019-05-05T01:58:21.824Z,22.10
2019-05-05T02:00:48.465Z,22.06
2019-05-05T02:03:15.096Z,22.06
2019-05-05T02:05:41.781Z,22.04
2019-05-05T02:08:08.422Z,22.03
2019-05-05T02:10:35.118Z,22.01
2019-05-05T02:13:01.763Z,21.96
2019-05-05T02:15:28.421Z,22.06
2019-05-05T02:17:55.193Z,22.02
2019-05-05T02:20:28.757Z,22.02
2019-05-05T02:22:48.363Z,21.98
2019-05-05T02:25:15.002Z,21.98
2019-05-05T02:27:41.683Z,21.92
2019-05-05T02:30:08.323Z,21.96
2019-05-05T02:32:36.119Z,21.99
2019-05-05T02:35:01.645Z,21.97
2019-05-05T02:37:28.275Z,21.92
2019-05-05T02:40:01.402Z,21.97
2019-05-05T02:42:21.563Z,21.86
2019-05-05T02:44:48.222Z,21.88
2019-05-05T02:47:15.621Z,21.90
2019-05-05T02:49:41.519Z,21.85
2019-05-05T02:52:08.166Z,21.92
2019-05-05T02:54:34.790Z,21.86
2019-05-05T02:57:01.443Z,21.90
2019-05-05T02:59:28.086Z,21.92
2019-05-05T03:01:54.792Z,21.79
2019-05-05T03:04:21.473Z,21.86
2019-05-05T03:06:48.100Z,21.84
2019-05-05T03:09:14.757Z,21.83
2019-05-05T03:11:43.560Z,21.86
2019-05-05T03:14:08.073Z,21.87
2019-05-05T03:16:34.719Z,21.87
2019-05-05T03:19:03.434Z,21.83
2019-05-05T03:21:28.031Z,21.83
2019-05-05T03:26:23.303Z,21.75
2019-05-05T03:28:48.133Z,21.83
2019-05-05T03:31:15.935Z,21.87
2019-05-05T03:33:41.456Z,21.87
2019-05-05T03:36:08.144Z,21.87
2019-05-05T03:38:34.777Z,21.84
2019-05-05T03:41:03.508Z,21.83
2019-05-05T03:43:28.109Z,21.81
2019-05-05T03:45:54.753Z,21.82
2019-05-05T03:48:21.450Z,21.81
2019-05-05T03:50:48.077Z,21.78
2019-05-05T03:53:14.739Z,21.87
2019-05-05T03:55:41.383Z,21.75
2019-05-05T03:58:08.033Z,21.75
2019-05-05T04:00:34.720Z,21.80
2019-05-05T04:03:01.360Z,21.79
2019-05-05T04:05:28.049Z,21.77
2019-05-05T04:07:54.692Z,21.76
2019-05-05T04:10:21.405Z,21.80
2019-05-05T04:12:48.050Z,21.65
2019-05-05T04:15:14.760Z,21.67
2019-05-05T04:17:41.405Z,21.69
2019-05-05T04:20:08.069Z,21.69
2019-05-05T04:22:34.710Z,21.67
2019-05-05T04:25:01.354Z,21.62
2019-05-05T04:27:27.999Z,21.71
2019-05-05T04:29:54.670Z,21.66
2019-05-05T04:32:21.329Z,21.73
2019-05-05T04:34:48.016Z,21.71
2019-05-05T04:37:15.048Z,21.65
2019-05-05T04:39:41.298Z,21.72
2019-05-05T04:42:07.954Z,21.75
2019-05-05T04:44:34.896Z,21.69
2019-05-05T04:47:01.260Z,21.64
2019-05-05T04:49:27.900Z,21.66
2019-05-05T04:51:54.589Z,21.77
2019-05-05T04:54:21.223Z,21.79
2019-05-05T04:56:47.855Z,21.81
2019-05-05T04:59:14.535Z,21.79
2019-05-05T05:01:41.223Z,21.67
2019-05-05T05:04:07.867Z,21.68
2019-05-05T05:06:34.565Z,21.68
2019-05-05T05:11:27.893Z,21.76
2019-05-05T05:13:54.571Z,21.72
2019-05-05T05:16:21.225Z,21.75
2019-05-05T05:18:47.853Z,21.69
2019-05-05T05:21:14.734Z,21.74
2019-05-05T05:23:41.193Z,21.71
2019-05-05T05:26:07.841Z,21.70
2019-05-05T05:28:34.495Z,21.69
2019-05-05T05:31:01.125Z,21.78
2019-05-05T05:33:27.793Z,21.66
2019-05-05T05:35:54.770Z,21.66
2019-05-05T05:38:21.130Z,21.72
2019-05-05T05:40:47.766Z,21.78
2019-05-05T05:43:15.776Z,21.74
2019-05-05T05:45:41.085Z,21.77
2019-05-05T05:48:07.708Z,21.74
2019-05-05T05:50:35.777Z,21.80
2019-05-05T05:53:01.028Z,21.76
2019-05-05T05:55:27.665Z,21.76
2019-05-05T05:57:54.336Z,21.71
2019-05-05T06:00:20.938Z,21.71
2019-05-05T06:02:47.579Z,21.75
2019-05-05T06:05:14.792Z,21.77
2019-05-05T06:07:40.859Z,21.73
2019-05-05T06:10:07.540Z,21.66
2019-05-05T06:12:34.187Z,21.79
2019-05-05T06:15:00.831Z,21.75
2019-05-05T06:17:27.478Z,21.64
2019-05-05T06:19:54.119Z,21.58
2019-05-05T06:22:28.502Z,21.66
2019-05-05T06:24:47.449Z,21.65
2019-05-05T06:27:14.370Z,21.68
2019-05-05T06:29:40.807Z,21.69
2019-05-05T06:32:07.462Z,21.67
2019-05-05T06:34:34.158Z,21.76
2019-05-05T06:37:00.829Z,21.76
2019-05-05T06:39:27.462Z,21.77
2019-05-05T06:44:20.870Z,21.79
2019-05-05T06:46:47.500Z,21.79
2019-05-05T06:49:14.165Z,21.84
2019-05-05T06:51:40.810Z,21.84
2019-05-05T06:54:07.516Z,21.87
2019-05-05T06:56:34.308Z,21.88
2019-05-05T06:59:00.944Z,21.89
2019-05-05T07:01:27.630Z,21.94
2019-05-05T07:03:54.290Z,21.94
2019-05-05T07:06:20.887Z,21.88
2019-05-05T07:08:47.577Z,21.86
2019-05-05T07:11:14.639Z,21.86
2019-05-05T07:13:40.847Z,21.94
2019-05-05T07:16:07.470Z,21.95
2019-05-05T07:18:34.329Z,22.00
2019-05-05T07:21:00.795Z,21.97
2019-05-05T07:23:27.454Z,21.99
2019-05-05T07:25:55.028Z,22.02
2019-05-05T07:28:20.751Z,22.06
2019-05-05T07:30:47.424Z,22.03
2019-05-05T07:33:14.891Z,22.06
2019-05-05T07:35:53.421Z,22.12
2019-05-05T07:38:07.317Z,22.05
2019-05-05T07:43:00.596Z,22.09
2019-05-05T07:45:27.296Z,22.13
2019-05-05T07:47:54.450Z,22.14
2019-05-05T07:50:29.570Z,22.17
2019-05-05T07:52:47.249Z,22.19
2019-05-05T07:55:14.408Z,22.21
2019-05-05T07:57:40.616Z,22.25
2019-05-05T08:00:07.259Z,22.26
2019-05-05T08:02:34.050Z,22.31
2019-05-05T08:05:00.585Z,22.30
2019-05-05T08:07:27.220Z,22.30
2019-05-05T08:09:53.934Z,22.35
2019-05-05T08:12:20.523Z,22.35
2019-05-05T08:14:47.307Z,22.38
2019-05-05T08:17:15.239Z,22.41
2019-05-05T08:19:40.642Z,22.43
2019-05-05T08:22:07.281Z,22.49
2019-05-05T08:24:33.923Z,22.48
2019-05-05T08:29:29.959Z,22.54
2019-05-05T08:31:56.603Z,22.58
2019-05-05T08:34:24.471Z,22.59
2019-05-05T08:36:49.881Z,22.62
2019-05-05T08:39:16.541Z,22.66
2019-05-05T08:41:45.379Z,22.69
2019-05-05T08:44:09.857Z,22.71
2019-05-05T08:46:36.556Z,22.74
2019-05-05T08:49:04.385Z,22.77
2019-05-05T08:51:29.829Z,22.77
2019-05-05T08:53:56.473Z,22.80
2019-05-05T08:56:23.807Z,22.81
2019-05-05T08:58:50.060Z,22.80
2019-05-05T09:01:16.432Z,22.85
2019-05-05T09:03:44.362Z,22.86
2019-05-05T09:06:09.704Z,22.89
2019-05-05T09:08:36.348Z,22.86
2019-05-05T09:11:04.750Z,22.88
2019-05-05T09:15:56.419Z,22.90
2019-05-05T09:18:24.630Z,22.91
2019-05-05T09:20:49.774Z,22.91
2019-05-05T09:23:16.433Z,22.92
2019-05-05T09:25:44.665Z,22.93
2019-05-05T09:28:09.830Z,22.95
2019-05-05T09:30:36.468Z,22.96
2019-05-05T09:33:03.598Z,22.96
2019-05-05T09:35:29.799Z,23.00
2019-05-05T09:37:56.496Z,23.01
2019-05-05T09:40:24.172Z,23.03
2019-05-05T09:42:49.819Z,23.03
2019-05-05T09:45:16.453Z,23.05
2019-05-05T09:47:45.003Z,23.02
2019-05-05T09:50:09.729Z,23.04
2019-05-05T09:52:36.399Z,23.04
2019-05-05T09:55:03.865Z,23.01
2019-05-05T09:57:29.686Z,23.03
2019-05-05T09:59:56.327Z,23.06
2019-05-05T10:02:24.033Z,23.07
2019-05-05T10:04:49.723Z,23.10
2019-05-05T10:07:16.356Z,23.13
2019-05-05T10:09:43.767Z,23.15
2019-05-05T10:14:36.353Z,23.17
2019-05-05T10:17:04.851Z,23.18
2019-05-05T10:19:29.689Z,23.20
2019-05-05T10:21:56.342Z,23.20
2019-05-05T10:24:28.538Z,23.22
2019-05-05T10:26:49.719Z,23.22
2019-05-05T10:29:16.408Z,23.25
2019-05-05T10:31:43.704Z,23.27
2019-05-05T10:34:09.785Z,23.25
2019-05-05T10:36:36.401Z,23.27
2019-05-05T10:39:04.389Z,23.30
2019-05-05T10:41:29.730Z,23.29
2019-05-05T10:43:56.379Z,23.30
2019-05-05T10:46:23.596Z,23.31
2019-05-05T10:48:53.792Z,23.29
2019-05-05T10:51:19.328Z,23.31
2019-05-05T10:53:45.987Z,23.32
2019-05-05T10:56:13.679Z,23.33
2019-05-05T10:58:39.340Z,23.32
2019-05-05T11:01:06.001Z,23.30
2019-05-05T11:03:34.338Z,23.31
2019-05-05T11:05:59.337Z,23.31
2019-05-05T11:08:25.999Z,23.29
2019-05-05T11:10:52.693Z,23.30
2019-05-05T11:13:19.404Z,23.30
2019-05-05T11:15:46.056Z,23.31
2019-05-05T11:18:14.897Z,23.32
2019-05-05T11:20:39.423Z,23.34
2019-05-05T11:23:06.149Z,23.28
2019-05-05T11:25:33.740Z,23.32
2019-05-05T11:27:59.509Z,23.30
2019-05-05T11:30:26.909Z,23.27
2019-05-05T11:32:53.011Z,23.29
2019-05-05T11:35:19.659Z,23.27
2019-05-05T11:37:46.368Z,23.28
2019-05-05T11:40:15.758Z,23.31
2019-05-05T11:42:42.455Z,23.30
2019-05-05T11:47:35.808Z,23.36
2019-05-05T11:50:04.399Z,23.37
2019-05-05T11:52:29.099Z,23.38
2019-05-05T11:55:08.927Z,23.37
2019-05-05T11:57:23.959Z,23.38
2019-05-05T11:59:50.526Z,23.38
2019-05-05T12:02:15.871Z,23.39
2019-05-05T12:04:42.576Z,23.39
2019-05-05T12:07:09.235Z,23.38
2019-05-05T12:09:35.870Z,23.38
2019-05-05T12:12:03.803Z,23.39
2019-05-05T12:14:29.195Z,23.41
2019-05-05T12:16:55.881Z,23.39
2019-05-05T12:19:24.361Z,23.40
2019-05-05T12:21:49.214Z,23.40
2019-05-05T12:24:15.894Z,23.40
2019-05-05T12:26:43.967Z,23.39
2019-05-05T12:29:09.217Z,23.40
2019-05-05T12:31:35.900Z,23.39
2019-05-05T12:34:03.944Z,23.37
2019-05-05T12:36:29.204Z,23.37
2019-05-05T12:38:59.119Z,23.37
2019-05-05T12:41:25.747Z,23.35
2019-05-05T12:43:55.339Z,23.31
2019-05-05T12:46:21.981Z,23.29
2019-05-05T12:48:48.673Z,23.32
2019-05-05T12:51:15.314Z,23.31
2019-05-05T12:53:41.955Z,23.36
2019-05-05T12:56:08.597Z,23.30
2019-05-05T12:58:35.278Z,23.29
2019-05-05T13:01:03.743Z,23.27
2019-05-05T13:03:29.352Z,23.27
2019-05-05T13:05:57.998Z,23.26
2019-05-05T13:08:23.424Z,23.29
2019-05-05T13:10:49.452Z,23.24
2019-05-05T13:13:16.113Z,23.23
2019-05-05T13:15:44.278Z,23.24
2019-05-05T13:18:09.397Z,23.25
2019-05-05T13:20:36.164Z,23.24
2019-05-05T13:23:04.164Z,23.20
2019-05-05T13:25:29.504Z,23.25
2019-05-05T13:27:57.400Z,23.27
2019-05-05T13:30:23.630Z,23.29
2019-05-05T13:32:49.487Z,23.32
2019-05-05T13:35:16.156Z,23.34
2019-05-05T13:37:44.356Z,23.38
2019-05-05T13:40:09.451Z,23.39
2019-05-05T13:42:36.089Z,23.40
2019-05-05T13:45:03.928Z,23.43
2019-05-05T13:47:29.441Z,23.38
2019-05-05T13:49:56.044Z,23.38
2019-05-05T13:52:24.403Z,23.38
2019-05-05T13:54:49.324Z,23.39
2019-05-05T13:57:16.002Z,23.37
2019-05-05T13:59:44.473Z,23.38
2019-05-05T14:02:09.297Z,23.39
2019-05-05T14:07:04.026Z,23.35
2019-05-05T14:09:29.297Z,23.37
2019-05-05T14:11:55.955Z,23.36
2019-05-05T14:14:24.221Z,23.33
2019-05-05T14:16:49.562Z,23.33
2019-05-05T14:19:16.197Z,23.35
2019-05-05T14:21:44.566Z,23.34
2019-05-05T14:24:09.495Z,23.33
2019-05-05T14:26:36.155Z,23.31
2019-05-05T14:29:04.271Z,23.34
2019-05-05T14:31:29.466Z,23.35
2019-05-05T14:33:56.134Z,23.34
2019-05-05T14:36:24.432Z,23.37
2019-05-05T14:38:49.634Z,23.37
2019-05-05T14:41:16.180Z,23.37
2019-05-05T14:43:43.865Z,23.36
2019-05-05T14:46:09.483Z,23.37
2019-05-05T14:48:37.202Z,23.37
2019-05-05T14:51:03.996Z,23.34
2019-05-05T14:53:29.443Z,23.35
2019-05-05T14:55:56.106Z,23.35
2019-05-05T14:58:22.747Z,23.34
2019-05-05T15:00:49.404Z,23.31
2019-05-05T15:03:16.033Z,23.31
2019-05-05T15:05:44.391Z,23.30
2019-05-05T15:08:09.439Z,23.30
2019-05-05T15:10:36.049Z,23.32
2019-05-05T15:13:04.290Z,23.27
2019-05-05T15:15:29.397Z,23.26
2019-05-05T15:17:56.043Z,23.29
2019-05-05T15:20:24.499Z,23.25
2019-05-05T15:22:49.347Z,23.21
2019-05-05T15:27:45.011Z,23.20
2019-05-05T15:30:09.321Z,23.21
2019-05-05T15:32:35.983Z,23.22
2019-05-05T15:35:03.994Z,23.26
2019-05-05T15:37:29.267Z,23.21
2019-05-05T15:39:55.901Z,23.28
2019-05-05T15:42:22.541Z,23.22
2019-05-05T15:44:49.229Z,23.19
2019-05-05T15:47:15.881Z,23.21
2019-05-05T15:49:44.083Z,23.16
2019-05-05T15:52:09.198Z,23.16
2019-05-05T15:54:35.825Z,23.16
2019-05-05T15:57:06.345Z,23.10
2019-05-05T15:59:29.178Z,23.11
2019-05-05T16:01:55.821Z,23.12
2019-05-05T16:04:23.560Z,23.14
2019-05-05T16:06:49.137Z,23.10
2019-05-05T16:09:15.805Z,23.13
2019-05-05T16:11:46.574Z,23.10
2019-05-05T16:14:09.127Z,23.14
2019-05-05T16:16:35.819Z,23.09
2019-05-05T16:19:06.316Z,23.22
2019-05-05T16:21:29.173Z,23.19
2019-05-05T16:26:24.431Z,23.25
2019-05-05T16:28:49.128Z,23.27
2019-05-05T16:31:15.804Z,23.19
2019-05-05T16:33:44.123Z,23.22
2019-05-05T16:36:09.096Z,23.22
2019-05-05T16:38:35.768Z,23.21
2019-05-05T16:41:02.447Z,23.25
2019-05-05T16:43:29.091Z,23.14
2019-05-05T16:45:55.751Z,23.17
2019-05-05T16:48:25.292Z,23.15
2019-05-05T16:50:49.069Z,23.16
2019-05-05T16:53:15.769Z,23.18
2019-05-05T16:55:42.405Z,23.18
2019-05-05T16:58:09.048Z,23.19
2019-05-05T17:00:35.758Z,23.14
2019-05-05T17:03:04.146Z,23.15
2019-05-05T17:05:29.045Z,23.14
2019-05-05T17:07:58.274Z,23.10
2019-05-05T17:10:24.299Z,23.08
2019-05-05T17:12:49.050Z,23.09
2019-05-05T17:15:15.741Z,23.10
2019-05-05T17:17:44.458Z,23.08
2019-05-05T17:20:09.032Z,23.05
2019-05-05T17:22:35.671Z,23.07
2019-05-05T17:25:02.355Z,23.04
2019-05-05T17:27:29.005Z,23.04
2019-05-05T17:29:55.680Z,23.04
2019-05-05T17:32:22.304Z,23.03
2019-05-05T17:34:48.996Z,23.04
2019-05-05T17:37:15.630Z,22.99
2019-05-05T17:39:43.776Z,23.03
2019-05-05T17:42:08.961Z,23.01
2019-05-05T17:44:35.615Z,23.02
2019-05-05T17:47:04.341Z,23.04
2019-05-05T17:49:28.890Z,23.02
2019-05-05T17:51:55.541Z,22.99
2019-05-05T17:54:24.089Z,23.00
2019-05-05T17:56:54.418Z,22.96
2019-05-05T17:59:18.365Z,22.94
2019-05-05T18:01:45.003Z,22.96
2019-05-05T18:04:13.498Z,22.97
2019-05-05T18:06:38.355Z,22.95
2019-05-05T18:11:31.649Z,22.88
2019-05-05T18:13:58.302Z,22.91
2019-05-05T18:16:26.917Z,22.85
2019-05-05T18:18:51.571Z,22.87
2019-05-05T18:21:18.208Z,22.90
2019-05-05T18:23:44.919Z,22.92
2019-05-05T18:26:13.515Z,22.88
2019-05-05T18:28:38.270Z,22.89
2019-05-05T18:31:05.617Z,22.85
2019-05-05T18:33:31.584Z,22.87
2019-05-05T18:35:58.211Z,22.85
2019-05-05T18:38:24.899Z,22.84
2019-05-05T18:40:51.548Z,22.82
2019-05-05T18:43:18.187Z,22.80
2019-05-05T18:45:44.927Z,22.79
2019-05-05T18:48:11.564Z,22.81
2019-05-05T18:50:38.255Z,22.82
2019-05-05T18:53:04.898Z,22.84
2019-05-05T18:57:58.220Z,22.79
2019-05-05T19:00:24.925Z,22.80
2019-05-05T19:02:53.425Z,22.81
2019-05-05T19:05:18.203Z,22.81
2019-05-05T19:07:55.144Z,22.79
2019-05-05T19:10:11.515Z,22.76
2019-05-05T19:12:38.225Z,22.74
2019-05-05T19:15:04.807Z,22.76
2019-05-05T19:17:31.462Z,22.75
2019-05-05T19:19:58.096Z,22.72
2019-05-05T19:22:24.772Z,22.72
2019-05-05T19:24:51.426Z,22.70
2019-05-05T19:27:18.110Z,22.71
2019-05-05T19:29:46.250Z,22.72
2019-05-05T19:32:11.427Z,22.71
2019-05-05T19:34:38.029Z,22.73
2019-05-05T19:37:04.719Z,22.68
2019-05-05T19:39:31.349Z,22.67
2019-05-05T19:41:58.044Z,22.66
2019-05-05T19:44:26.103Z,22.67
2019-05-05T19:46:51.347Z,22.65
2019-05-05T19:49:18.030Z,22.63
2019-05-05T19:51:44.786Z,22.64
2019-05-05T19:54:11.339Z,22.61
2019-05-05T19:56:37.992Z,22.60
2019-05-05T19:59:04.701Z,22.66
2019-05-05T20:01:35.432Z,22.60
2019-05-05T20:04:00.773Z,22.60
2019-05-05T20:06:27.410Z,22.62
2019-05-05T20:08:54.055Z,22.63
2019-05-05T20:11:20.684Z,22.56
2019-05-05T20:13:47.381Z,22.53
2019-05-05T20:16:14.070Z,22.57
2019-05-05T20:18:40.789Z,22.56
2019-05-05T20:21:07.582Z,22.54
2019-05-05T20:23:34.177Z,22.58
2019-05-05T20:26:00.716Z,22.55
2019-05-05T20:30:54.186Z,22.49
2019-05-05T20:33:20.751Z,22.52
2019-05-05T20:35:47.351Z,22.51
2019-05-05T20:38:14.361Z,22.51
2019-05-05T20:43:07.324Z,22.50
2019-05-05T20:45:34.688Z,22.44
2019-05-05T20:48:00.673Z,22.46
2019-05-05T20:50:27.328Z,22.46
2019-05-05T20:52:54.057Z,22.51
2019-05-05T20:55:20.670Z,22.48
2019-05-05T20:57:47.356Z,22.47
2019-05-05T21:00:14.506Z,22.46
2019-05-05T21:05:07.416Z,22.48
2019-05-05T21:07:34.695Z,22.42
2019-05-05T21:10:00.747Z,22.51
2019-05-05T21:12:39.079Z,22.46
2019-05-05T21:14:54.072Z,22.47
2019-05-05T21:17:20.782Z,22.45
2019-05-05T21:19:47.417Z,22.44
2019-05-05T21:22:14.046Z,22.38
2019-05-05T21:24:40.692Z,22.45
2019-05-05T21:27:07.330Z,22.43
2019-05-05T21:29:41.943Z,22.42
2019-05-05T21:32:00.662Z,22.41
2019-05-05T21:34:27.301Z,22.42
2019-05-05T21:36:54.212Z,22.39
2019-05-05T21:39:20.577Z,22.42
2019-05-05T21:41:47.353Z,22.39
2019-05-05T21:44:14.687Z,22.41
2019-05-05T21:46:40.670Z,22.37
2019-05-05T21:49:07.306Z,22.38
2019-05-05T21:51:34.972Z,22.38
2019-05-05T21:54:00.639Z,22.32
2019-05-05T21:56:27.278Z,22.37
2019-05-05T21:58:53.943Z,22.35
2019-05-05T22:03:47.245Z,22.33
2019-05-05T22:06:14.648Z,22.32
2019-05-05T22:08:40.537Z,22.36
2019-05-05T22:11:07.183Z,22.33
2019-05-05T22:13:36.190Z,22.38
2019-05-05T22:16:00.506Z,22.26
2019-05-05T22:18:27.151Z,22.30
2019-05-05T22:20:54.632Z,22.36
2019-05-05T22:23:20.442Z,22.30
2019-05-05T22:25:47.113Z,22.30
2019-05-05T22:28:15.097Z,22.25
2019-05-05T22:30:40.427Z,22.29
2019-05-05T22:33:07.082Z,22.24
2019-05-05T22:35:34.877Z,22.27
2019-05-05T22:38:00.372Z,22.29
2019-05-05T22:40:27.052Z,22.28
2019-05-05T22:42:54.685Z,22.23
2019-05-05T22:45:20.339Z,22.26
2019-05-05T22:50:13.909Z,22.18
2019-05-05T22:52:40.288Z,22.18
2019-05-05T22:55:06.934Z,22.19
2019-05-05T22:57:34.529Z,22.22
2019-05-05T23:00:00.216Z,22.19
2019-05-05T23:02:26.862Z,22.20
2019-05-05T23:04:54.531Z,22.23
2019-05-05T23:07:20.177Z,22.17
2019-05-05T23:09:46.825Z,22.16
2019-05-05T23:12:13.690Z,22.15
2019-05-05T23:14:40.170Z,22.17
2019-05-05T23:17:06.820Z,22.18
2019-05-05T23:19:33.697Z,22.15
2019-05-05T23:22:00.164Z,22.13
2019-05-05T23:24:26.851Z,22.12
2019-05-05T23:26:54.580Z,22.09
2019-05-05T23:29:20.171Z,22.12
2019-05-05T23:31:46.816Z,22.11
2019-05-05T23:34:14.756Z,22.06
2019-05-05T23:36:40.093Z,22.12
2019-05-05T23:39:06.761Z,22.09
2019-05-05T23:41:35.763Z,22.12
2019-05-05T23:44:03.669Z,22.08
2019-05-05T23:48:55.713Z,22.07
2019-05-05T23:51:24.172Z,22.03
2019-05-05T23:53:48.985Z,22.06
2019-05-05T23:56:15.619Z,22.06
2019-05-05T23:58:44.076Z,22.04
